Time;durP1;ratioP1;P1;durP2;ratioP2;P2;SDS_P1;SDS_P2;PMS_P1;PMS_P2;Temp;Humidity;BMP_temperature;BMP_pressure;BME280_temperature;BME280_humidity;BME280_pressure;Samples;Min_cycle;Max_cycle;Signal;HPM_P1;HPM_P2
2023/06/22 00:00:14;;;;;;;186.13;175.13;;;;;;;21.31;64.77;101469.13;15797863;28;20052;-54
2023/06/22 00:07:47;;;;;;;182.63;171.88;;;;;;;21.28;64.51;101461.47;15791322;28;20060;-56
2023/06/22 00:15:21;;;;;;;165.82;155.75;;;;;;;21.20;64.59;101478.31;15778734;28;20036;-56
2023/06/22 00:22:54;;;;;;;142.80;134.48;;;;;;;20.87;65.94;101481.09;15797015;28;20450;-56
2023/06/22 00:30:42;;;;;;;160.20;150.45;;;;;;;20.93;65.60;101486.59;15775813;28;20412;-56
2023/06/22 00:38:16;;;;;;;172.70;162.38;;;;;;;21.04;64.87;101480.16;15779501;28;20044;-55
2023/06/22 00:45:50;;;;;;;;;;;;;;;20.91;65.96;101475.13;15762729;28;20127;-54
2023/06/22 00:53:24;;;;;;;136.55;128.38;;;;;;;21.04;65.17;101493.78;15775052;28;19920;-53
2023/06/22 01:00:59;;;;;;;133.20;125.32;;;;;;;21.03;65.21;101501.16;15803951;28;20504;-55
2023/06/22 01:08:41;;;;;;;110.40;103.65;;;;;;;20.99;65.38;101504.69;15807633;28;20127;-56
2023/06/22 01:16:21;;;;;;;139.40;130.75;;;;;;;20.97;65.35;101495.91;15783869;28;20507;-56
2023/06/22 01:24:11;;;;;;;166.95;156.90;;;;;;;20.67;67.24;101505.50;15806783;28;20127;-55
2023/06/22 01:31:49;;;;;;;171.02;160.88;;;;;;;20.60;67.23;101508.41;15806427;28;20044;-53
2023/06/22 01:39:23;;;;;;;153.25;143.93;;;;;;;20.73;66.32;101507.19;15770796;28;20052;-54
2023/06/22 01:47:00;;;;;;;187.55;176.30;;;;;;;20.79;66.17;101500.66;15787551;28;20055;-54
2023/06/22 01:54:33;;;;;;;224.57;210.70;;;;;;;20.80;66.31;101515.97;15786990;28;20097;-57
2023/06/22 02:02:11;;;;;;;194.70;182.63;;;;;;;20.56;67.20;101520.09;15786596;28;20437;-53
2023/06/22 02:09:46;;;;;;;153.18;143.85;;;;;;;20.50;67.09;101530.13;15802051;28;20067;-53
2023/06/22 02:17:21;;;;;;;133.48;125.47;;;;;;;20.51;66.65;101534.50;15784574;28;20044;-57
2023/06/22 02:24:54;;;;;;;184.75;173.65;;;;;;;20.45;66.97;101532.78;15782517;28;20066;-51
2023/06/22 02:32:28;;;;;;;208.82;196.20;;;;;;;20.53;66.91;101526.91;15799819;28;20039;-53
2023/06/22 02:40:03;;;;;;;240.10;225.52;;;;;;;20.48;67.50;101528.78;15784410;28;20562;-53
2023/06/22 02:47:37;;;;;;;221.30;207.98;;;;;;;20.50;67.29;101530.13;15783557;28;20073;-53
2023/06/22 02:55:10;;;;;;;163.23;153.07;;;;;;;20.67;67.04;101534.69;15774525;28;20040;-52
2023/06/22 03:02:46;;;;;;;141.07;132.50;;;;;;;20.61;66.87;101529.19;15782353;28;20364;-53
2023/06/22 03:10:18;;;;;;;131.55;123.13;;;;;;;20.20;68.12;101525.16;15782118;28;20553;-55
2023/06/22 03:17:53;;;;;;;134.00;125.47;;;;;;;20.05;69.23;101522.25;15765395;28;20119;-52
2023/06/22 03:25:26;;;;;;;102.57;95.88;;;;;;;19.72;70.53;101531.34;15779745;22;20155;-55
2023/06/22 03:33:00;;;;;;;138.13;129.48;;;;;;;20.46;68.32;101536.34;15653440;28;20041;-54
2023/06/22 03:40:33;;;;;;;138.27;129.55;;;;;;;20.73;67.64;101534.47;15703434;28;20044;-53
2023/06/22 03:48:08;;;;;;;108.78;101.68;;;;;;;20.14;69.35;101537.06;15711607;28;20032;-54
2023/06/22 03:55:49;;;;;;;100.50;93.80;;;;;;;20.64;67.71;101544.19;15712083;28;20086;-53
2023/06/22 04:03:23;;;;;;;106.70;100.03;;;;;;;20.57;67.96;101538.13;15711937;28;20115;-51
2023/06/22 04:10:56;;;;;;;115.60;108.20;;;;;;;20.31;69.45;101547.91;15711752;28;20125;-54
2023/06/22 04:18:30;;;;;;;;;;;;;;;20.28;69.83;101551.13;15730258;28;20045;-56
2023/06/22 04:26:04;;;;;;;50.78;46.33;;;;;;;19.95;70.69;101563.00;15728729;28;20359;-48
2023/06/22 04:33:40;;;;;;;67.22;62.58;;;;;;;20.50;69.04;101576.50;15717901;28;20054;-56
2023/06/22 04:41:23;;;;;;;50.10;46.08;;;;;;;20.60;68.60;101581.25;15742826;28;20654;-56
2023/06/22 04:48:59;;;;;;;41.92;38.50;;;;;;;20.76;68.29;101584.97;15737857;28;20498;-57
2023/06/22 04:56:31;;;;;;;20.27;14.82;;;;;;;20.92;67.87;101567.66;15740659;28;20040;-56
2023/06/22 05:04:06;;;;;;;16.77;10.90;;;;;;;21.13;66.85;101574.13;15736394;28;20048;-53
2023/06/22 05:11:40;;;;;;;14.52;8.40;;;;;;;21.46;65.43;101574.94;15739658;28;20045;-57
2023/06/22 05:19:14;;;;;;;12.00;7.10;;;;;;;21.57;65.04;101582.13;15721902;28;20108;-56
2023/06/22 05:26:47;;;;;;;12.65;6.78;;;;;;;21.79;64.66;101574.59;15720442;28;20124;-56
2023/06/22 05:34:22;;;;;;;9.80;5.65;;;;;;;21.84;63.10;101580.09;15721090;28;20040;-56
2023/06/22 05:41:56;;;;;;;12.88;6.53;;;;;;;22.40;61.51;101585.03;15719858;28;20444;-59
2023/06/22 05:49:32;;;;;;;8.45;5.07;;;;;;;22.67;60.41;101591.13;15736816;28;20053;-57
2023/06/22 05:57:06;;;;;;;9.30;4.65;;;;;;;22.96;59.70;101582.41;15719392;28;20481;-57
2023/06/22 06:04:42;;;;;;;8.98;4.18;;;;;;;22.97;55.98;101592.28;15736102;28;20155;-57
2023/06/22 06:12:19;;;;;;;9.57;4.00;;;;;;;22.53;57.92;101559.06;15736647;28;20093;-60
2023/06/22 06:19:54;;;;;;;8.70;4.32;;;;;;;23.13;56.04;101590.38;15718084;28;20453;-60
2023/06/22 06:27:29;;;;;;;8.30;3.67;;;;;;;23.56;55.84;101594.44;15716804;28;20036;-60
2023/06/22 06:35:03;;;;;;;7.57;3.92;;;;;;;23.96;53.39;101568.03;15700393;28;20040;-58
2023/06/22 06:42:37;;;;;;;6.22;2.85;;;;;;;24.48;52.28;101587.88;15700077;28;20051;-57
2023/06/22 06:50:12;;;;;;;10.35;2.80;;;;;;;24.21;50.29;101577.28;15716402;28;20052;-56
2023/06/22 06:57:48;;;;;;;5.55;2.45;;;;;;;24.62;49.42;101558.69;15715538;28;20036;-57
2023/06/22 07:05:22;;;;;;;3.60;2.20;;;;;;;25.55;45.77;101543.06;15698590;28;20271;-57
2023/06/22 07:12:56;;;;;;;6.03;3.00;;;;;;;24.98;46.57;101518.03;15699346;28;20045;-56
2023/06/22 07:20:32;;;;;;;3.92;2.40;;;;;;;25.47;47.30;101533.56;15714081;28;20068;-58
2023/06/22 07:28:07;;;;;;;2.97;1.70;;;;;;;25.82;44.06;101523.28;15713667;28;20109;-61
2023/06/22 07:35:44;;;;;;;4.28;2.20;;;;;;;25.04;46.08;101530.66;15714104;28;20695;-56
2023/06/22 07:43:17;;;;;;;4.50;2.20;;;;;;;25.00;46.48;101537.00;15713404;28;20040;-59
2023/06/22 07:50:53;;;;;;;3.35;1.88;;;;;;;25.21;46.55;101537.66;15730768;28;20056;-55
2023/06/22 07:58:26;;;;;;;4.65;2.40;;;;;;;25.14;45.83;101540.75;15731086;28;20049;-60
2023/06/22 08:06:00;;;;;;;4.30;1.90;;;;;;;25.31;46.45;101538.38;15730394;28;20071;-61
2023/06/22 08:13:33;;;;;;;6.00;2.38;;;;;;;25.19;46.56;101532.47;15712118;28;20114;-58
2023/06/22 08:21:07;;;;;;;4.53;2.08;;;;;;;25.04;46.28;101522.41;15695058;28;20515;-58
2023/06/22 08:28:40;;;;;;;3.30;1.88;;;;;;;25.41;45.21;101518.22;15729890;28;20049;-58
2023/06/22 08:36:14;;;;;;;3.55;1.80;;;;;;;25.62;43.09;101532.56;15729263;28;20051;-58
2023/06/22 08:43:47;;;;;;;3.13;1.88;;;;;;;26.05;44.64;101527.13;15711176;28;20068;-60
2023/06/22 08:51:22;;;;;;;2.28;1.45;;;;;;;26.06;42.13;101528.75;15710586;28;20053;-56
2023/06/22 08:58:54;;;;;;;3.72;1.48;;;;;;;26.61;39.74;101529.91;15711276;28;20043;-58
2023/06/22 09:06:31;;;;;;;3.90;1.80;;;;;;;27.24;39.19;101519.56;15729285;28;20093;-63
2023/06/22 09:14:04;;;;;;;2.97;1.60;;;;;;;26.58;40.09;101521.44;15711078;28;20043;-61
2023/06/22 09:21:38;;;;;;;2.45;1.45;;;;;;;26.26;41.14;101519.41;15719288;28;20098;-60
2023/06/22 09:29:11;;;;;;;3.17;2.08;;;;;;;26.12;42.14;101511.91;15756516;22;20591;-50
2023/06/22 09:36:46;;;;;;;3.65;2.33;;;;;;;26.03;42.18;101505.41;15746388;28;20070;-49
2023/06/22 09:44:19;;;;;;;5.32;1.90;;;;;;;26.76;42.16;101515.06;15788645;28;20512;-51
2023/06/22 09:51:53;;;;;;;2.85;1.60;;;;;;;26.84;41.39;101502.56;15789183;28;20044;-50
2023/06/22 09:59:27;;;;;;;4.05;1.98;;;;;;;26.60;41.07;101499.94;15780986;28;20046;-52
2023/06/22 10:07:02;;;;;;;3.10;1.80;;;;;;;26.17;41.95;101497.25;15787621;28;20036;-50
2023/06/22 10:14:35;;;;;;;3.55;1.80;;;;;;;26.31;40.33;101497.31;15805274;28;20059;-49
2023/06/22 10:22:09;;;;;;;3.65;2.03;;;;;;;26.42;40.07;101491.34;15804488;28;20500;-53
2023/06/22 10:29:42;;;;;;;3.13;1.60;;;;;;;27.40;39.30;101494.13;15769317;28;20044;-49
2023/06/22 10:37:17;;;;;;;6.65;6.05;;;;;;;29.23;36.47;101472.53;15804861;28;20052;-50
2023/06/22 10:44:51;;;;;;;16.00;14.93;;;;;;;29.80;34.97;101462.63;15786290;28;20040;-50
2023/06/22 10:52:26;;;;;;;27.85;26.02;;;;;;;29.43;35.66;101467.59;15786575;28;20123;-52
2023/06/22 11:00:00;;;;;;;25.30;23.77;;;;;;;29.25;35.93;101446.53;15799403;28;20047;-51
2023/06/22 11:07:34;;;;;;;26.20;24.58;;;;;;;29.87;36.54;101451.91;15802356;28;20047;-51
2023/06/22 11:15:09;;;;;;;76.07;71.70;;;;;;;30.42;33.70;101421.66;15801343;28;20117;-51
2023/06/22 11:22:43;;;;;;;113.53;107.07;;;;;;;30.57;33.81;101419.50;15802046;28;20048;-49
2023/06/22 11:30:17;;;;;;;144.73;136.43;;;;;;;31.60;32.45;101414.72;15800729;28;20044;-52
2023/06/22 11:37:55;;;;;;;237.23;222.68;;;;;;;31.18;31.70;101425.69;15782671;28;20596;-49
2023/06/22 11:45:30;;;;;;;389.70;364.63;;;;;;;30.74;31.52;101425.03;15783997;28;20075;-48
2023/06/22 11:53:05;;;;;;;446.48;417.30;;;;;;;30.48;31.78;101430.59;15781845;28;20072;-57
2023/06/22 12:00:39;;;;;;;387.23;362.33;;;;;;;29.65;32.33;101405.81;15781871;28;20036;-51
2023/06/22 12:08:14;;;;;;;329.70;308.80;;;;;;;30.27;32.26;101382.59;15781972;28;20036;-51
2023/06/22 12:15:47;;;;;;;529.58;493.50;;;;;;;31.37;30.34;101390.03;15798368;28;20408;-53
2023/06/22 12:23:22;;;;;;;567.08;525.80;;;;;;;31.46;30.12;101378.91;15781208;28;20040;-51
2023/06/22 12:30:55;;;;;;;503.25;469.40;;;;;;;31.20;32.72;101338.25;15800146;28;20109;-54
2023/06/22 12:38:29;;;;;;;590.53;547.58;;;;;;;31.99;30.11;101360.72;15800468;28;20040;-49
2023/06/22 12:46:02;;;;;;;643.70;596.42;;;;;;;31.40;31.33;101350.53;15781377;28;20511;-48
2023/06/22 12:53:36;;;;;;;690.65;637.83;;;;;;;32.06;29.92;101338.75;15805060;28;20048;-54
2023/06/22 13:01:10;;;;;;;644.38;596.80;;;;;;;31.82;29.70;101319.19;15792488;28;20435;-48
2023/06/22 13:08:48;;;;;;;638.10;592.67;;;;;;;31.47;30.54;101308.38;15791796;28;20407;-49
2023/06/22 13:16:21;;;;;;;561.22;522.28;;;;;;;30.22;31.69;101314.34;15809270;28;20048;-50
2023/06/22 13:23:58;;;;;;;428.17;400.52;;;;;;;30.27;32.35;101291.19;15808704;28;20039;-50
2023/06/22 13:31:31;;;;;;;338.20;317.35;;;;;;;30.36;32.37;101289.22;15789557;28;20078;-50
2023/06/22 13:39:06;;;;;;;316.00;296.80;;;;;;;30.52;32.33;101272.84;15790159;28;20044;-48
2023/06/22 13:46:39;;;;;;;247.98;232.95;;;;;;;30.26;33.40;101257.13;15788829;28;20154;-49
2023/06/22 13:54:13;;;;;;;296.10;278.05;;;;;;;30.24;32.62;101245.56;15806663;28;20123;-51
2023/06/22 14:01:47;;;;;;;318.80;299.25;;;;;;;30.06;33.50;101250.31;15787984;28;20044;-51
2023/06/22 14:09:21;;;;;;;152.45;143.82;;;;;;;29.10;34.15;101237.63;15805728;28;20135;-53
2023/06/22 14:16:54;;;;;;;168.80;159.40;;;;;;;29.68;33.90;101226.13;15787535;28;20059;-50
2023/06/22 14:24:28;;;;;;;191.02;179.80;;;;;;;29.57;33.52;101224.03;15805620;28;20489;-55
2023/06/22 14:32:01;;;;;;;176.23;165.90;;;;;;;29.16;34.04;101203.19;15786365;28;20154;-53
2023/06/22 14:39:35;;;;;;;203.85;191.82;;;;;;;29.75;34.16;101178.56;15787152;28;20113;-51
2023/06/22 14:47:08;;;;;;;119.53;112.63;;;;;;;29.63;34.81;101165.44;15768338;28;20059;-52
2023/06/22 14:54:43;;;;;;;144.10;135.95;;;;;;;28.92;35.38;101154.69;15803562;28;20615;-50
2023/06/22 15:02:17;;;;;;;84.53;79.80;;;;;;;29.28;35.43;101136.16;15779000;28;20122;-49
2023/06/22 15:09:52;;;;;;;91.22;86.00;;;;;;;29.61;34.94;101145.59;15801580;28;20028;-50
2023/06/22 15:17:28;;;;;;;95.43;90.10;;;;;;;29.44;35.37;101132.56;15764320;28;20043;-52
2023/06/22 15:25:07;;;;;;;117.00;110.30;;;;;;;29.65;34.79;101131.91;15789023;28;20048;-54
2023/06/22 15:32:44;;;;;;;111.43;104.90;;;;;;;29.30;35.13;101106.25;15759350;28;20048;-48
2023/06/22 15:40:18;;;;;;;95.57;90.05;;;;;;;28.89;36.03;101088.19;15799351;28;20048;-50
2023/06/22 15:47:51;;;;;;;92.45;87.28;;;;;;;28.68;35.80;101097.16;15799711;28;20164;-49
2023/06/22 15:55:26;;;;;;;63.75;60.05;;;;;;;28.70;36.22;101097.63;15793516;28;20097;-51
2023/06/22 16:02:59;;;;;;;61.33;57.85;;;;;;;28.39;36.54;101083.13;15771983;28;20119;-51
2023/06/22 16:10:34;;;;;;;58.72;55.05;;;;;;;28.79;36.70;101056.19;15778726;28;20400;-52
2023/06/22 16:18:07;;;;;;;89.28;84.25;;;;;;;28.35;36.60;101043.47;15779966;28;20574;-50
2023/06/22 16:25:44;;;;;;;55.35;51.88;;;;;;;28.25;37.38;101029.97;15796962;28;20455;-50
2023/06/22 16:33:18;;;;;;;48.50;45.67;;;;;;;28.20;37.02;101009.66;15779378;28;20040;-49
2023/06/22 16:40:52;;;;;;;45.13;42.53;;;;;;;28.19;38.08;101007.22;15781029;28;20400;-53
2023/06/22 16:48:25;;;;;;;38.38;36.15;;;;;;;28.02;37.63;100985.91;15797177;28;20497;-52
2023/06/22 16:56:00;;;;;;;41.60;39.20;;;;;;;27.79;37.98;101004.50;15779428;28;20427;-49
2023/06/22 17:03:34;;;;;;;32.58;30.67;;;;;;;27.84;37.88;100995.28;15797066;28;20048;-50
2023/06/22 17:11:09;;;;;;;32.45;30.38;;;;;;;27.54;38.65;100996.94;15796316;28;20044;-51
2023/06/22 17:18:43;;;;;;;31.88;29.80;;;;;;;27.51;38.60;100992.88;15777354;28;20040;-51
2023/06/22 17:26:18;;;;;;;17.90;16.63;;;;;;;27.63;38.94;100967.47;15776094;28;20040;-50
2023/06/22 17:33:51;;;;;;;9.82;9.05;;;;;;;27.28;39.97;100969.25;15792611;28;20055;-53
2023/06/22 17:41:33;;;;;;;8.52;7.82;;;;;;;27.27;39.98;100940.06;15784929;28;20059;-53
2023/06/22 17:49:08;;;;;;;8.13;7.43;;;;;;;27.13;40.38;100918.13;15807024;28;20389;-50
2023/06/22 17:56:42;;;;;;;6.93;5.88;;;;;;;26.93;40.62;100909.25;15806206;28;20118;-49
2023/06/22 18:04:18;;;;;;;6.43;5.82;;;;;;;26.87;40.45;100882.16;15788155;28;20059;-54
2023/06/22 18:12:00;;;;;;;6.40;5.88;;;;;;;26.86;40.53;100895.13;15806129;28;20477;-51
2023/06/22 18:19:34;;;;;;;5.07;4.65;;;;;;;26.75;41.43;100891.00;15787780;28;20044;-52
2023/06/22 18:27:11;;;;;;;4.57;3.88;;;;;;;26.47;41.73;100898.59;15787237;28;20044;-50
2023/06/22 18:34:45;;;;;;;5.22;4.35;;;;;;;26.48;41.27;100907.66;15787579;28;20068;-48
2023/06/22 18:42:20;;;;;;;6.75;4.82;;;;;;;26.36;41.61;100883.44;15786295;28;20055;-51
2023/06/22 18:49:53;;;;;;;4.90;4.20;;;;;;;26.19;41.99;100849.16;15802678;28;20050;-53
2023/06/22 18:57:29;;;;;;;3.97;3.58;;;;;;;26.06;42.09;100806.00;15784353;28;20510;-50
2023/06/22 19:05:09;;;;;;;4.10;3.30;;;;;;;26.13;42.12;100830.34;15800700;28;20143;-50
2023/06/22 19:12:44;;;;;;;8.65;4.57;;;;;;;25.86;42.17;100837.56;15774115;28;20069;-54
2023/06/22 19:20:19;;;;;;;5.32;3.88;;;;;;;25.60;42.67;100836.47;15772865;28;20044;-51
2023/06/22 19:27:54;;;;;;;4.88;3.25;;;;;;;25.62;42.46;100845.25;15791251;28;20048;-49
2023/06/22 19:35:27;;;;;;;6.50;4.20;;;;;;;25.59;43.09;100835.66;15779308;28;20040;-52
2023/06/22 19:43:02;;;;;;;8.95;4.55;;;;;;;25.70;42.74;100801.34;15794834;28;20495;-51
2023/06/22 19:50:39;;;;;;;5.55;2.90;;;;;;;24.95;46.97;100796.34;15809544;28;20078;-52
2023/06/22 19:58:14;;;;;;;4.95;3.00;;;;;;;24.45;49.03;100776.19;15780226;28;20106;-52
2023/06/22 20:05:48;;;;;;;70.28;66.20;;;;;;;23.93;51.53;100809.09;15798767;28;20075;-55
2023/06/22 20:13:22;;;;;;;542.95;503.55;;;;;;;24.06;53.73;101066.13;15780373;28;20489;-53
2023/06/22 20:20:55;;;;;;;1999.90;916.00;;;;;;;20.64;74.31;101148.66;15797938;28;20457;-55
2023/06/22 20:28:29;;;;;;;1689.45;812.97;;;;;;;19.88;77.90;101057.25;15797801;28;20044;-51
2023/06/22 20:36:03;;;;;;;805.30;694.75;;;;;;;20.32;74.35;100950.56;15796469;28;20044;-50
2023/06/22 20:43:39;;;;;;;1243.20;771.28;;;;;;;20.69;73.99;100995.91;15779890;28;20048;-52
2023/06/22 20:51:12;;;;;;;1999.90;915.42;;;;;;;20.92;73.36;100974.66;15778688;28;20081;-51
2023/06/22 20:58:46;;;;;;;1999.90;872.95;;;;;;;20.20;76.68;100922.75;15778343;28;20458;-51
2023/06/22 21:06:19;;;;;;;1999.90;999.90;;;;;;;20.39;75.81;100898.50;15778227;28;20078;-54
2023/06/22 21:13:53;;;;;;;1999.90;999.90;;;;;;;20.42;75.32;100913.50;15782597;28;20036;-52
2023/06/22 21:21:26;;;;;;;1999.80;840.92;;;;;;;20.12;75.44;100969.59;15809957;28;20036;-51
2023/06/22 21:29:00;;;;;;;1999.90;999.90;;;;;;;20.60;74.31;101112.09;15817600;22;20056;-49
2023/06/22 21:36:33;;;;;;;1999.90;781.38;;;;;;;19.58;78.64;101332.91;15739695;28;20455;-49
2023/06/22 21:44:07;;;;;;;1999.90;841.83;;;;;;;19.88;78.27;101258.84;15785756;28;20044;-49
2023/06/22 21:51:40;;;;;;;1999.90;802.80;;;;;;;20.52;75.55;101159.00;15801485;28;20488;-45
2023/06/22 21:59:14;;;;;;;;;;;;;;;19.99;76.71;101040.94;15800930;28;20368;-51
2023/06/22 22:06:50;;;;;;;713.88;592.53;;;;;;;19.21;80.75;100997.16;15800014;28;19920;-49
2023/06/22 22:14:25;;;;;;;872.65;695.42;;;;;;;19.48;79.60;100978.81;15799331;28;20422;-47
2023/06/22 22:21:58;;;;;;;580.65;536.67;;;;;;;19.32;79.37;101002.41;15798350;28;20093;-50
2023/06/22 22:29:32;;;;;;;;;;;;;;;19.06;80.68;100981.53;15799166;28;20119;-44
2023/06/22 22:37:06;;;;;;;22.92;20.88;;;;;;;19.30;79.54;100963.75;15779658;28;19963;-49
2023/06/22 22:44:40;;;;;;;23.27;21.20;;;;;;;19.33;78.82;100951.53;15797078;28;20048;-45
2023/06/22 22:52:13;;;;;;;27.40;25.13;;;;;;;18.96;81.04;100910.75;15779440;28;20040;-45
2023/06/22 22:59:47;;;;;;;20.05;18.05;;;;;;;18.81;80.55;100878.81;15756937;28;20127;-48
2023/06/22 23:07:20;;;;;;;16.50;14.85;;;;;;;18.72;80.15;100881.22;15778030;28;20075;-47
2023/06/22 23:14:55;;;;;;;18.50;14.98;;;;;;;18.65;79.87;100845.22;15795901;28;20048;-49
2023/06/22 23:22:27;;;;;;;17.95;12.63;;;;;;;18.41;80.09;100776.00;15787347;28;20131;-47
2023/06/22 23:30:04;;;;;;;10.82;8.52;;;;;;;18.39;78.88;100761.88;15793958;28;20097;-47
2023/06/22 23:37:39;;;;;;;10.88;7.70;;;;;;;18.39;78.53;100806.19;15775769;28;20044;-47
2023/06/22 23:45:17;;;;;;;11.75;10.30;;;;;;;18.24;78.37;100814.22;15794720;28;20251;-47
2023/06/22 23:52:49;;;;;;;15.45;12.85;;;;;;;18.19;78.79;100833.19;15776164;28;20064;-49
